Time;durP1;ratioP1;P1;durP2;ratioP2;P2;SDS_P1;SDS_P2;PMS_P1;PMS_P2;Temp;Humidity;BMP_temperature;BMP_pressure;BME280_temperature;BME280_humidity;BME280_pressure;Samples;Min_cycle;Max_cycle;Signal;HPM_P1;HPM_P2
2022/09/20 00:02:15;;;;;;;;;;;;;;;11.03;93.33;102215.78;5046806;28;19929;-54
2022/09/20 00:04:40;;;;;;;;;;;;;;;11.02;93.63;102206.13;5046320;28;19920;-53
2022/09/20 00:07:05;;;;;;;;;;;;;;;11.00;93.46;102203.59;5046535;28;20004;-55
2022/09/20 00:09:31;;;;;;;;;;;;;;;11.00;93.57;102211.59;5043837;28;19924;-52
2022/09/20 00:11:56;;;;;;;;;;;;;;;10.99;93.77;102214.38;5049078;28;19921;-55
2022/09/20 00:14:21;;;;;;;;;;;;;;;10.98;93.94;102215.34;5046077;28;19939;-54
2022/09/20 00:16:46;;;;;;;;;;;;;;;10.97;93.98;102203.03;5045980;28;19917;-54
2022/09/20 00:19:16;;;;;;;;;;;;;;;10.96;94.12;102215.47;5045385;28;19917;-55
2022/09/20 00:21:41;;;;;;;;;;;;;;;10.95;94.07;102213.78;5045128;28;19921;-54
2022/09/20 00:24:06;;;;;;;;;;;;;;;10.95;94.26;102215.59;5045045;28;20410;-51
2022/09/20 00:26:32;;;;;;;;;;;;;;;10.93;94.54;102223.72;5046081;28;19921;-54
2022/09/20 00:28:57;;;;;;;;;;;;;;;10.93;94.03;102228.19;5047290;28;20474;-55
2022/09/20 00:31:23;;;;;;;;;;;;;;;10.89;93.81;102218.81;5047977;28;19917;-54
2022/09/20 00:36:32;;;;;;;;;;;;;;;10.81;93.45;102225.69;5048690;28;20513;-55
2022/09/20 00:38:58;;;;;;;;;;;;;;;10.79;93.16;102230.31;5050885;28;20386;-55
2022/09/20 00:41:24;;;;;;;;;;;;;;;10.74;93.41;102226.38;5045869;28;20391;-55
2022/09/20 00:43:49;;;;;;;;;;;;;;;10.72;93.07;102231.00;5048624;28;19921;-55
2022/09/20 00:46:21;;;;;;;;;;;;;;;10.69;93.17;102228.59;5042439;28;20417;-54
2022/09/20 00:48:47;;;;;;;;;;;;;;;10.65;93.21;102222.72;5047812;28;19920;-54
2022/09/20 00:51:15;;;;;;;;;;;;;;;10.63;93.39;102222.00;5046587;28;19931;-56
2022/09/20 00:53:43;;;;;;;;;;;;;;;10.60;93.42;102229.41;5045618;28;20003;-53
2022/09/20 00:56:12;;;;;;;;;;;;;;;10.48;93.12;102221.56;5047919;28;19943;-55
2022/09/20 00:58:41;;;;;;;;;;;;;;;10.48;93.22;102234.00;5044793;28;19928;-54
2022/09/20 01:01:06;;;;;;;;;;;;;;;10.44;92.82;102232.59;5051505;28;19923;-53
2022/09/20 01:03:34;;;;;;;;;;;;;;;10.41;92.79;102232.88;5044374;28;19921;-54
2022/09/20 01:06:02;;;;;;;;;;;;;;;10.42;93.22;102232.75;5043867;28;19977;-55
2022/09/20 01:08:28;;;;;;;;;;;;;;;10.43;93.27;102229.13;5042237;28;19917;-55
2022/09/20 01:10:53;;;;;;;;;;;;;;;10.46;93.02;102226.19;5044988;28;20430;-55
2022/09/20 01:13:18;;;;;;;;;;;;;;;10.50;92.89;102229.41;5045140;28;20320;-55
2022/09/20 01:15:46;;;;;;;;;;;;;;;10.56;92.90;102226.19;5046578;28;19921;-55
2022/09/20 01:18:12;;;;;;;;;;;;;;;10.61;93.13;102226.63;5044772;28;20433;-55
2022/09/20 01:20:40;;;;;;;;;;;;;;;10.65;92.85;102228.03;5048194;28;19921;-55
2022/09/20 01:23:27;;;;;;;;;;;;;;;10.69;92.88;102226.78;5048084;28;19964;-55
2022/09/20 01:26:11;;;;;;;;;;;;;;;10.73;92.90;102225.53;5046933;28;19917;-55
2022/09/20 01:28:37;;;;;;;;;;;;;;;10.73;92.65;102219.38;5046581;28;20379;-56
2022/09/20 01:31:16;;;;;;;;;;;;;;;10.73;92.60;102224.69;5044768;28;20007;-55
2022/09/20 01:33:47;;;;;;;;;;;;;;;10.73;92.86;102222.88;5038551;28;20011;-54
2022/09/20 01:36:17;;;;;;;;;;;;;;;10.73;92.49;102224.69;5043738;28;19917;-56
2022/09/20 01:38:42;;;;;;;;;;;;;;;10.72;92.56;102218.56;5044822;28;19948;-54
2022/09/20 01:41:14;;;;;;;;;;;;;;;10.72;92.91;102226.53;5045433;28;19986;-55
2022/09/20 01:43:44;;;;;;;;;;;;;;;10.72;92.79;102221.22;5040541;28;19927;-54
2022/09/20 01:46:23;;;;;;;;;;;;;;;10.70;93.52;102225.81;5046183;28;19917;-56
2022/09/20 01:48:50;;;;;;;;;;;;;;;10.70;93.44;102230.28;5043715;28;20660;-54
2022/09/20 01:51:31;;;;;;;;;;;;;;;10.70;93.67;102228.47;5039107;28;19924;-54
2022/09/20 01:53:56;;;;;;;;;;;;;;;10.70;93.36;102233.78;5045941;28;19923;-56
2022/09/20 01:56:27;;;;;;;;;;;;;;;10.71;93.00;102224.84;5045938;28;20004;-54
2022/09/20 01:58:55;;;;;;;;;;;;;;;10.74;93.17;102224.56;5046051;28;19960;-54
2022/09/20 02:01:50;;;;;;;;;;;;;;;10.76;92.76;102227.09;5044522;28;20312;-52
2022/09/20 02:04:18;;;;;;;;;;;;;;;10.78;92.82;102225.97;5043203;28;19921;-54
2022/09/20 02:07:02;;;;;;;;;;;;;;;10.81;92.92;102224.84;5046574;28;19924;-55
2022/09/20 02:09:46;;;;;;;;;;;;;;;10.81;92.65;102223.03;5043895;28;19920;-54
2022/09/20 02:12:23;;;;;;;;;;;;;;;10.81;92.55;102225.69;5044152;28;19920;-55
2022/09/20 02:14:56;;;;;;;;;;;;;;;10.81;92.76;102222.19;5041306;28;19971;-55
2022/09/20 02:17:26;;;;;;;;;;;;;;;10.81;92.69;102215.06;5045194;28;19920;-55
2022/09/20 02:20:14;;;;;;;;;;;;;;;10.83;92.77;102221.06;5049554;28;19951;-55
2022/09/20 02:22:43;;;;;;;;;;;;;;;10.83;92.37;102225.53;5046682;28;20023;-55
2022/09/20 02:25:08;;;;;;;;;;;;;;;10.82;92.44;102224.72;5045943;28;19917;-55
2022/09/20 02:27:39;;;;;;;;;;;;;;;10.81;92.16;102227.50;5046057;28;20297;-54
2022/09/20 02:30:12;;;;;;;;;;;;;;;10.79;92.34;102222.31;5040916;28;19965;-55
2022/09/20 02:32:56;;;;;;;;;;;;;;;10.77;91.97;102216.31;5046381;28;19928;-53
2022/09/20 02:35:24;;;;;;;;;;;;;;;10.78;92.18;102223.31;5043332;28;19916;-54
2022/09/20 02:38:08;;;;;;;;;;;;;;;10.79;92.31;102217.00;5045250;28;19921;-54
2022/09/20 02:40:52;;;;;;;;;;;;;;;10.77;92.35;102212.81;5040856;28;20565;-54
2022/09/20 02:43:32;;;;;;;;;;;;;;;10.78;92.19;102218.00;5040633;28;19936;-54
2022/09/20 02:46:15;;;;;;;;;;;;;;;10.76;92.53;102214.63;5043370;28;19923;-53
2022/09/20 02:48:53;;;;;;;;;;;;;;;10.72;92.62;102213.25;5042635;28;20363;-54
2022/09/20 02:51:27;;;;;;;;;;;;;;;10.72;92.51;102215.06;5043690;28;20002;-54
2022/09/20 02:54:12;;;;;;;;;;;;;;;10.72;92.70;102212.41;5042671;28;19917;-53
2022/09/20 02:56:56;;;;;;;;;;;;;;;10.71;92.78;102211.56;5048520;28;19921;-53
2022/09/20 02:59:26;;;;;;;;;;;;;;;10.71;92.94;102213.38;5035998;28;19921;-56
2022/09/20 03:01:51;;;;;;;;;;;;;;;10.72;92.35;102210.59;5044026;28;20445;-55
2022/09/20 03:04:22;;;;;;;;;;;;;;;10.73;92.49;102216.72;5045977;28;20470;-56
2022/09/20 03:07:11;;;;;;;;;;;;;;;10.74;92.56;102210.44;5051501;28;19912;-55
2022/09/20 03:09:46;;;;;;;;;;;;;;;10.75;92.48;102212.97;5033296;28;19921;-55
2022/09/20 03:12:25;;;;;;;;;;;;;;;10.77;92.70;102202.19;5044739;28;19921;-55
2022/09/20 03:15:09;;;;;;;;;;;;;;;10.81;92.25;102208.91;5045320;28;20499;-55
2022/09/20 03:17:45;;;;;;;;;;;;;;;10.83;92.43;102215.75;5049851;28;19931;-55
2022/09/20 03:20:19;;;;;;;;;;;;;;;10.85;92.11;102210.31;5050344;28;20348;-54
2022/09/20 03:22:57;;;;;;;;;;;;;;;10.86;92.16;102210.16;5051258;28;20059;-55
2022/09/20 03:25:22;;;;;;;;;;;;;;;10.86;91.91;102218.13;5050228;28;19912;-55
2022/09/20 03:28:06;;;;;;;;;;;;;;;10.88;91.79;102215.34;5049699;28;19924;-55
2022/09/20 03:30:44;;;;;;;;;;;;;;;10.91;91.33;102224.84;5050802;28;19921;-55
2022/09/20 03:33:22;;;;;;;;;;;;;;;10.90;91.33;102221.34;5051966;28;19946;-55
2022/09/20 03:36:11;;;;;;;;;;;;;;;10.91;91.09;102220.38;5048497;28;19913;-56
2022/09/20 03:38:51;;;;;;;;;;;;;;;10.92;91.24;102229.19;5048545;28;19917;-56
2022/09/20 03:41:16;;;;;;;;;;;;;;;10.92;90.82;102229.19;5045135;28;20307;-56
2022/09/20 03:43:48;;;;;;;;;;;;;;;10.90;91.07;102221.34;5053642;28;20400;-55
2022/09/20 03:46:39;;;;;;;;;;;;;;;10.88;91.37;102218.00;5048538;28;19923;-55
2022/09/20 03:49:23;;;;;;;;;;;;;;;10.89;91.30;102218.81;5047594;28;20011;-56
2022/09/20 03:51:54;;;;;;;;;;;;;;;10.90;91.49;102217.84;5050629;28;20376;-56
2022/09/20 03:54:22;;;;;;;;;;;;;;;10.89;92.17;102209.03;5051129;28;20493;-55
2022/09/20 03:56:47;;;;;;;;;;;;;;;10.90;92.16;102216.03;5051539;28;20381;-54
2022/09/20 03:59:31;;;;;;;;;;;;;;;10.91;92.51;102219.53;5050748;28;20331;-54
2022/09/20 04:02:02;;;;;;;;;;;;;;;10.91;92.42;102211.56;5051644;28;19966;-55
2022/09/20 04:04:46;;;;;;;;;;;;;;;10.93;92.48;102206.94;5048468;28;20331;-55
2022/09/20 04:07:22;;;;;;;;;;;;;;;10.93;92.12;102212.25;5043504;28;19926;-56
2022/09/20 04:09:58;;;;;;;;;;;;;;;10.90;92.43;102215.19;5045635;28;19917;-56
2022/09/20 04:12:42;;;;;;;;;;;;;;;10.92;92.61;102207.91;5046846;28;19927;-56
2022/09/20 04:15:11;;;;;;;;;;;;;;;10.92;92.10;102207.91;5047814;28;20437;-55
2022/09/20 04:17:42;;;;;;;;;;;;;;;10.93;92.30;102214.91;5049718;28;19971;-55
2022/09/20 04:20:20;;;;;;;;;;;;;;;10.92;92.19;102214.06;5046287;28;19928;-55
2022/09/20 04:22:49;;;;;;;;;;;;;;;10.92;91.95;102207.91;5047299;28;19925;-55
2022/09/20 04:25:20;;;;;;;;;;;;;;;10.92;92.47;102199.94;5046198;28;19928;-55
2022/09/20 04:28:08;;;;;;;;;;;;;;;10.93;92.33;102201.63;5044039;28;20371;-56
2022/09/20 04:30:42;;;;;;;;;;;;;;;10.95;92.13;102207.63;5039637;28;19924;-55
2022/09/20 04:33:13;;;;;;;;;;;;;;;10.98;92.04;102212.66;5043412;28;19916;-55
2022/09/20 04:38:29;;;;;;;;;;;;;;;11.02;92.15;102214.09;5045553;28;19986;-56
2022/09/20 04:41:15;;;;;;;;;;;;;;;11.03;92.18;102215.78;5050594;28;20411;-55
2022/09/20 04:43:59;;;;;;;;;;;;;;;10.99;92.11;102209.06;5043591;28;19924;-56
2022/09/20 04:46:42;;;;;;;;;;;;;;;11.04;92.12;102215.63;5047910;28;19916;-56
2022/09/20 04:49:09;;;;;;;;;;;;;;;11.03;91.62;102216.63;5049080;28;19965;-55
2022/09/20 04:51:53;;;;;;;;;;;;;;;11.02;91.98;102222.06;5049047;28;19920;-55
2022/09/20 04:54:37;;;;;;;;;;;;;;;11.01;91.67;102221.22;5043867;28;19924;-55
2022/09/20 04:57:20;;;;;;;;;;;;;;;11.00;91.57;102219.56;5046379;28;20004;-54
2022/09/20 05:00:01;;;;;;;;;;;;;;;11.01;91.51;102217.75;5045907;28;19943;-55
2022/09/20 05:02:45;;;;;;;;;;;;;;;11.01;91.48;102226.56;5044512;28;19921;-55
2022/09/20 05:05:17;;;;;;;;;;;;;;;10.99;91.54;102231.16;5047873;28;19925;-55
2022/09/20 05:07:47;;;;;;;;;;;;;;;10.98;91.55;102232.13;5047806;28;19970;-54
2022/09/20 05:10:23;;;;;;;;;;;;;;;10.98;91.16;102233.94;5045255;28;19967;-56
2022/09/20 05:12:55;;;;;;;;;;;;;;;10.96;91.07;102233.25;5047760;28;20022;-55
2022/09/20 05:15:35;;;;;;;;;;;;;;;10.93;91.25;102230.84;5043830;28;20353;-56
2022/09/20 05:18:03;;;;;;;;;;;;;;;10.87;91.45;102232.25;5044208;28;19924;-56
2022/09/20 05:20:28;;;;;;;;;;;;;;;10.81;91.58;102241.63;5046501;28;19940;-55
2022/09/20 05:23:08;;;;;;;;;;;;;;;10.78;91.13;102236.59;5045400;28;19924;-55
2022/09/20 05:25:53;;;;;;;;;;;;;;;10.76;91.22;102245.69;5045710;28;19927;-55
2022/09/20 05:28:29;;;;;;;;;;;;;;;10.73;91.45;102240.66;5045708;28;19924;-55
2022/09/20 05:31:01;;;;;;;;;;;;;;;10.69;91.57;102241.88;5048121;28;19970;-53
2022/09/20 05:34:02;;;;;;;;;;;;;;;10.63;91.90;102253.06;5044152;28;20004;-55
2022/09/20 05:36:46;;;;;;;;;;;;;;;10.53;91.89;102258.34;4983798;28;20017;-56
2022/09/20 05:39:30;;;;;;;;;;;;;;;10.43;91.87;102260.16;5037989;28;19928;-55
2022/09/20 05:41:58;;;;;;;;;;;;;;;10.35;91.79;102255.47;5046058;28;19939;-55
2022/09/20 05:45:02;;;;;;;;;;;;;;;10.31;92.26;102261.19;5046135;28;19932;-55
2022/09/20 05:47:47;;;;;;;;;;;;;;;10.31;92.60;102266.50;5025592;28;19917;-54
2022/09/20 05:50:15;;;;;;;;;;;;;;;10.33;92.55;102269.88;5025654;28;19921;-54
2022/09/20 05:52:53;;;;;;;;;;;;;;;10.35;92.98;102265.25;5036998;28;20004;-55
2022/09/20 05:55:42;;;;;;;;;;;;;;;10.39;93.11;102258.72;5047341;28;19913;-55
2022/09/20 05:58:26;;;;;;;;;;;;;;;10.43;93.79;102266.28;5045088;28;20007;-54
2022/09/20 06:01:12;;;;;;;;;;;;;;;10.47;93.83;102258.91;5039683;28;20008;-56
2022/09/20 06:03:43;;;;;;;;;;;;;;;10.51;93.84;102277.06;5043143;28;20388;-55
2022/09/20 06:06:13;;;;;;;;;;;;;;;10.55;93.68;102277.66;5042911;28;19917;-55
2022/09/20 06:08:42;;;;;;;;;;;;;;;10.59;93.65;102279.03;5040561;28;19921;-56
2022/09/20 06:11:07;;;;;;;;;;;;;;;10.63;93.48;102284.94;5040214;28;19925;-56
2022/09/20 06:13:38;;;;;;;;;;;;;;;10.65;93.54;102288.28;5043679;28;19917;-56
2022/09/20 06:16:05;;;;;;;;;;;;;;;10.68;93.75;102288.00;5039428;28;20519;-55
2022/09/20 06:18:30;;;;;;;;;;;;;;;10.71;93.52;102285.13;5042002;28;19940;-55
2022/09/20 06:21:14;;;;;;;;;;;;;;;10.75;93.28;102291.84;5038931;28;20403;-56
2022/09/20 06:23:39;;;;;;;;;;;;;;;10.78;93.29;102291.56;5042732;28;19921;-55
2022/09/20 06:26:16;;;;;;;;;;;;;;;10.81;93.67;102293.94;5041187;28;19932;-56
2022/09/20 06:28:45;;;;;;;;;;;;;;;10.82;93.91;102288.47;5043455;28;19916;-56
2022/09/20 06:31:10;;;;;;;;;;;;;;;10.86;94.62;102292.53;5048574;28;20391;-55
2022/09/20 06:33:56;;;;;;;;;;;;;;;10.90;94.55;102289.59;5049435;28;20395;-55
2022/09/20 06:42:12;;;;;;;;;;;;;;;11.05;94.38;102283.78;5020965;28;19924;-55
2022/09/20 06:44:40;;;;;;;;;;;;;;;11.09;94.80;102287.84;5043895;28;19917;-55
2022/09/20 06:47:07;;;;;;;;;;;;;;;11.14;94.98;102288.25;5052012;28;19917;-54
2022/09/20 06:49:34;;;;;;;;;;;;;;;11.20;94.66;102289.50;5051066;28;19916;-56
2022/09/20 06:52:00;;;;;;;;;;;;;;;11.26;94.54;102291.59;5045904;28;19923;-54
2022/09/20 06:54:26;;;;;;;;;;;;;;;11.30;94.53;102292.19;5045892;28;19917;-55
2022/09/20 06:56:52;;;;;;;;;;;;;;;11.33;94.54;102295.41;5046663;28;19927;-54
2022/09/20 06:59:17;;;;;;;;;;;;;;;11.38;94.07;102289.66;5043924;28;20405;-54
2022/09/20 07:01:43;;;;;;;;;;;;;;;11.43;94.22;102295.41;5037074;28;20337;-55
2022/09/20 07:04:08;;;;;;;;;;;;;;;11.41;94.04;102294.69;5042401;28;19986;-55
2022/09/20 07:06:34;;;;;;;;;;;;;;;11.42;94.10;102297.22;5045450;28;19962;-55
2022/09/20 07:08:59;;;;;;;;;;;;;;;11.42;93.64;102297.22;5044289;28;19913;-54
2022/09/20 07:11:24;;;;;;;;;;;;;;;11.46;93.59;102295.13;5048830;28;19923;-53
2022/09/20 07:13:50;;;;;;;;;;;;;;;11.50;93.37;102296.50;5058917;28;19913;-55
2022/09/20 07:16:16;;;;;;;;;;;;;;;11.56;93.51;102298.59;5050845;28;20016;-56
2022/09/20 07:18:41;;;;;;;;;;;;;;;11.60;93.45;102301.84;5047219;28;19988;-55
2022/09/20 07:21:11;;;;;;;;;;;;;;;11.65;93.40;102300.44;5058420;28;19912;-56
2022/09/20 07:23:36;;;;;;;;;;;;;;;11.72;93.23;102303.34;5049515;28;20051;-54
2022/09/20 07:26:01;;;;;;;;;;;;;;;11.79;93.15;102304.50;5047085;28;20004;-54
2022/09/20 07:28:28;;;;;;;;;;;;;;;11.86;93.29;102305.63;5049380;28;19959;-55
2022/09/20 07:30:53;;;;;;;;;;;;;;;11.92;93.08;102305.03;5052331;28;19955;-56
2022/09/20 07:33:20;;;;;;;;;;;;;;;11.99;92.90;102305.31;5042759;28;20357;-56
2022/09/20 07:35:46;;;;;;;;;;;;;;;12.05;92.83;102312.72;5052323;28;19923;-56
2022/09/20 07:38:12;;;;;;;;;;;;;;;12.09;92.59;102312.28;5051941;28;19917;-56
2022/09/20 07:40:37;;;;;;;;;;;;;;;12.14;92.59;102303.84;5056617;28;19935;-56
2022/09/20 07:43:02;;;;;;;;;;;;;;;12.20;92.67;102313.09;5043538;28;19917;-56
2022/09/20 07:45:28;;;;;;;;;;;;;;;12.26;92.63;102318.69;5051525;28;20011;-56
2022/09/20 07:47:53;;;;;;;;;;;;;;;12.31;92.03;102320.91;5043983;28;19912;-55
2022/09/20 07:50:18;;;;;;;;;;;;;;;12.36;92.05;102321.31;5045063;28;19916;-56
2022/09/20 07:52:44;;;;;;;;;;;;;;;12.43;91.88;102326.88;5044050;28;20479;-56
2022/09/20 07:55:09;;;;;;;;;;;;;;;12.48;91.66;102317.50;5043042;28;19913;-56
2022/09/20 07:57:36;;;;;;;;;;;;;;;12.54;91.25;102326.72;5043882;28;19970;-56
2022/09/20 08:00:02;;;;;;;;;;;;;;;12.57;90.78;102327.25;5048963;28;19966;-55
2022/09/20 08:02:28;;;;;;;;;;;;;;;12.65;90.87;102331.84;5045376;28;20439;-56
2022/09/20 08:04:53;;;;;;;;;;;;;;;12.69;90.48;102323.41;5053382;28;20517;-56
2022/09/20 08:07:18;;;;;;;;;;;;;;;12.75;90.55;102330.00;5045089;28;19917;-56
2022/09/20 08:09:43;;;;;;;;;;;;;;;12.81;90.25;102328.56;5041943;28;19920;-57
2022/09/20 08:12:08;;;;;;;;;;;;;;;12.84;89.57;102323.75;5035234;28;19914;-55
2022/09/20 08:14:34;;;;;;;;;;;;;;;12.81;88.57;102312.56;5045297;28;20401;-56
2022/09/20 08:16:59;;;;;;;;;;;;;;;12.92;88.77;102321.16;5042944;28;19917;-56
2022/09/20 08:19:25;;;;;;;;;;;;;;;12.95;87.90;102320.88;5039025;28;19920;-56
2022/09/20 08:21:54;;;;;;;;;;;;;;;13.01;87.91;102327.47;5048230;28;19920;-56
2022/09/20 08:24:20;;;;;;;;;;;;;;;13.01;88.06;102328.28;5049482;28;21258;-56
2022/09/20 08:26:47;;;;;;;;;;;;;;;13.07;87.59;102326.00;5053079;28;19919;-57
2022/09/20 08:29:13;;;;;;;;;;;;;;;13.13;87.60;102328.06;5053860;28;19912;-56
2022/09/20 08:31:40;;;;;;;;;;;;;;;13.24;87.70;102334.03;5044052;28;19923;-56
2022/09/20 08:34:07;;;;;;;;;;;;;;;13.28;87.05;102332.75;5047327;28;20392;-56
2022/09/20 08:36:34;;;;;;;;;;;;;;;13.33;86.54;102340.31;5048736;28;19963;-56
2022/09/20 08:38:59;;;;;;;;;;;;;;;13.39;85.46;102344.22;5040119;28;20011;-56
2022/09/20 08:41:24;;;;;;;;;;;;;;;13.44;83.99;102348.09;5048136;28;20011;-56
2022/09/20 08:43:50;;;;;;;;;;;;;;;13.51;84.49;102340.31;5049162;28;19917;-56
2022/09/20 08:46:17;;;;;;;;;;;;;;;13.55;84.56;102349.69;5050343;28;20352;-56
2022/09/20 08:48:43;;;;;;;;;;;;;;;13.59;84.35;102348.41;5048997;28;19912;-56
2022/09/20 08:51:10;;;;;;;;;;;;;;;13.65;83.10;102350.47;5049826;28;20395;-55
2022/09/20 08:53:39;;;;;;;;;;;;;;;13.78;82.31;102355.38;5054793;28;19912;-56
2022/09/20 08:56:05;;;;;;;;;;;;;;;13.86;81.64;102348.28;5052970;28;19913;-54
2022/09/20 08:58:30;;;;;;;;;;;;;;;14.02;80.41;102349.41;5047678;28;19913;-55
2022/09/20 09:00:57;;;;;;;;;;;;;;;14.09;79.97;102351.28;5039456;28;19944;-56
2022/09/20 09:03:22;;;;;;;;;;;;;;;14.21;80.83;102350.06;5047605;28;19916;-55
2022/09/20 09:05:51;;;;;;;;;;;;;;;14.29;80.33;102361.78;5044792;28;19920;-56
2022/09/20 09:08:25;;;;;;;;;;;;;;;14.34;79.86;102360.31;5050615;28;19974;-54
2022/09/20 09:10:52;;;;;;;;;;;;;;;14.41;80.05;102357.84;5049545;28;19912;-56
2022/09/20 09:13:27;;;;;;;;;;;;;;;14.44;79.34;102363.72;5042106;28;19919;-56
2022/09/20 09:15:55;;;;;;;;;;;;;;;14.45;78.83;102360.06;5050209;28;20332;-55
2022/09/20 09:18:20;;;;;;;;;;;;;;;14.45;78.25;102354.72;5054994;28;19959;-55
2022/09/20 09:20:46;;;;;;;;;;;;;;;14.45;77.88;102360.06;5046250;28;19917;-57
2022/09/20 09:23:24;;;;;;;;;;;;;;;14.48;78.50;102353.59;5048048;28;19921;-56
2022/09/20 09:25:49;;;;;;;;;;;;;;;14.57;78.96;102355.28;5047612;28;19913;-57
2022/09/20 09:28:15;;;;;;;;;;;;;;;14.62;79.33;102360.16;5044895;28;19912;-56
2022/09/20 09:30:48;;;;;;;;;;;;;;;14.66;78.86;102358.84;5042925;28;19913;-57
2022/09/20 09:33:13;;;;;;;;;;;;;;;14.70;78.79;102354.84;5042125;28;19917;-56
2022/09/20 09:35:38;;;;;;;;;;;;;;;14.72;78.02;102364.38;5042720;28;19913;-56
2022/09/20 09:38:03;;;;;;;;;;;;;;;14.72;77.71;102372.38;5045777;28;19916;-56
2022/09/20 09:40:30;;;;;;;;;;;;;;;14.73;77.93;102368.72;5048997;28;19916;-56
2022/09/20 09:42:56;;;;;;;;;;;;;;;14.78;78.08;102370.94;5037263;28;20026;-56
2022/09/20 09:45:26;;;;;;;;;;;;;;;14.77;76.53;102370.09;5040536;28;20002;-57
2022/09/20 09:47:52;;;;;;;;;;;;;;;14.78;76.65;102370.94;5040453;28;19912;-56
2022/09/20 09:50:25;;;;;;;;;;;;;;;14.79;76.80;102367.25;5040630;28;19917;-56
2022/09/20 09:52:58;;;;;;;;;;;;;;;14.86;76.37;102369.13;5045009;28;19923;-56
2022/09/20 09:55:26;;;;;;;;;;;;;;;14.93;76.06;102369.31;5032513;28;19919;-57
2022/09/20 09:57:59;;;;;;;;;;;;;;;15.02;76.17;102372.84;5045870;28;19920;-55
2022/09/20 10:00:25;;;;;;;;;;;;;;;15.12;76.08;102368.22;5038183;28;20010;-55
2022/09/20 10:03:00;;;;;;;;;;;;;;;15.24;75.57;102371.41;5034450;28;19976;-57
2022/09/20 10:05:28;;;;;;;;;;;;;;;15.35;74.95;102373.78;5041295;28;20410;-56
2022/09/20 10:08:03;;;;;;;;;;;;;;;15.47;75.19;102369.78;5046865;28;19920;-56
2022/09/20 10:10:33;;;;;;;;;;;;;;;15.57;74.50;102372.28;5036721;28;19967;-56
2022/09/20 10:12:58;;;;;;;;;;;;;;;15.63;74.64;102379.72;5039509;28;20391;-55
2022/09/20 10:15:23;;;;;;;;;;;;;;;15.67;74.41;102373.03;5039536;28;19917;-56
2022/09/20 10:17:59;;;;;;;;;;;;;;;15.70;73.50;102370.84;5053639;28;19924;-56
2022/09/20 10:20:32;;;;;;;;;;;;;;;15.78;73.64;102370.00;5048288;28;20331;-56
2022/09/20 10:23:07;;;;;;;;;;;;;;;15.85;72.64;102373.69;5047432;28;19923;-56
2022/09/20 10:25:42;;;;;;;;;;;;;;;15.93;72.11;102356.78;5044285;28;19916;-55
2022/09/20 10:28:17;;;;;;;;;;;;;;;15.98;71.67;102362.47;5045875;28;20295;-56
2022/09/20 10:30:45;;;;;;;;;;;;;;;16.05;72.03;102360.78;5045059;28;19913;-55
2022/09/20 10:33:26;;;;;;;;;;;;;;;16.11;71.91;102370.81;5041682;28;20015;-56
2022/09/20 10:35:51;;;;;;;;;;;;;;;16.11;72.08;102365.47;5044767;28;19913;-56
2022/09/20 10:38:20;;;;;;;;;;;;;;;16.04;70.89;102369.84;5045743;28;19954;-56
2022/09/20 10:43:54;;;;;;;;;;;;;;;16.05;70.62;102366.16;5039631;28;19929;-57
2022/09/20 10:46:26;;;;;;;;;;;;;;;16.13;70.61;102373.34;5042894;28;19917;-56
2022/09/20 10:49:00;;;;;;;;;;;;;;;16.20;70.19;102380.53;5040665;28;19996;-56
2022/09/20 10:51:44;;;;;;;;;;;;;;;16.22;69.59;102372.34;5044383;28;19917;-56
2022/09/20 10:54:09;;;;;;;;;;;;;;;16.21;69.37;102379.53;5045276;28;19913;-56
2022/09/20 10:56:36;;;;;;;;;;;;;;;16.18;68.44;102379.00;5047091;28;20063;-56
2022/09/20 10:59:10;;;;;;;;;;;;;;;16.16;68.36;102379.19;5044723;28;19959;-55
2022/09/20 11:01:54;;;;;;;;;;;;;;;16.19;68.23;102380.69;5049312;28;19963;-56
2022/09/20 11:04:19;;;;;;;;;;;;;;;16.27;68.80;102375.34;5050598;28;19917;-55
2022/09/20 11:07:01;;;;;;;;;;;;;;;16.30;67.63;102372.31;5041794;28;19913;-56
2022/09/20 11:09:30;;;;;;;;;;;;;;;16.39;67.66;102379.31;5047477;28;20363;-56
2022/09/20 11:12:15;;;;;;;;;;;;;;;16.45;68.04;102388.53;5037455;28;19917;-56
2022/09/20 11:14:42;;;;;;;;;;;;;;;16.49;67.72;102384.50;5043753;28;19971;-56
2022/09/20 11:17:18;;;;;;;;;;;;;;;16.51;67.69;102390.53;5038318;28;20054;-56
2022/09/20 11:19:51;;;;;;;;;;;;;;;16.51;67.33;102388.69;5039578;28;20400;-56
2022/09/20 11:22:22;;;;;;;;;;;;;;;16.49;67.01;102387.19;5042803;28;19960;-56
2022/09/20 11:24:55;;;;;;;;;;;;;;;16.46;66.87;102396.38;5044848;28;20043;-57
2022/09/20 11:27:28;;;;;;;;;;;;;;;16.44;66.36;102390.34;5042991;28;20075;-56
2022/09/20 11:30:07;;;;;;;;;;;;;;;16.37;66.15;102390.22;5048079;28;20008;-56
2022/09/20 11:32:41;;;;;;;;;;;;;;;16.31;66.53;102398.94;5042479;28;19978;-56
2022/09/20 11:35:24;;;;;;;;;;;;;;;16.25;66.41;102398.81;5041763;28;20465;-56
2022/09/20 11:37:59;;;;;;;;;;;;;;;16.14;66.10;102409.84;5044777;28;19917;-56
2022/09/20 11:40:27;;;;;;;;;;;;;;;16.03;66.18;102406.50;5046585;28;19913;-57
2022/09/20 11:42:54;;;;;;;;;;;;;;;15.95;66.48;102409.19;5047708;28;19917;-56
2022/09/20 11:45:20;;;;;;;;;;;;;;;15.87;66.62;102411.03;5044148;28;19920;-55
2022/09/20 11:47:50;;;;;;;;;;;;;;;15.82;67.14;102416.88;5041770;28;20003;-55
2022/09/20 11:50:37;;;;;;;;;;;;;;;15.80;67.71;102421.56;5043219;28;19917;-57
2022/09/20 11:53:25;;;;;;;;;;;;;;;15.76;67.70;102415.72;5039491;28;19916;-56
2022/09/20 11:55:56;;;;;;;;;;;;;;;15.75;67.29;102422.06;5037468;28;19912;-55
2022/09/20 11:58:21;;;;;;;;;;;;;;;15.76;67.89;102410.34;5041973;28;20502;-56
2022/09/20 12:00:49;;;;;;;;;;;;;;;15.78;67.80;102412.88;5043542;28;20006;-55
2022/09/20 12:03:36;;;;;;;;;;;;;;;15.83;67.51;102412.38;5046112;28;20037;-56
2022/09/20 12:06:27;;;;;;;;;;;;;;;15.92;67.20;102408.69;5054151;28;19916;-54
2022/09/20 12:08:53;;;;;;;;;;;;;;;16.04;67.01;102415.38;5048819;28;19913;-55
2022/09/20 12:11:30;;;;;;;;;;;;;;;16.12;67.15;102410.03;5051385;28;19952;-56
2022/09/20 12:14:01;;;;;;;;;;;;;;;16.21;66.60;102402.81;5042982;28;20390;-54
2022/09/20 12:16:37;;;;;;;;;;;;;;;16.22;65.97;102401.81;5042085;28;19920;-56
2022/09/20 12:19:06;;;;;;;;;;;;;;;16.17;65.10;102407.66;5045359;28;19916;-56
2022/09/20 12:21:51;;;;;;;;;;;;;;;16.14;65.34;102405.31;5039246;28;19940;-56
2022/09/20 12:24:17;;;;;;;;;;;;;;;16.19;65.26;102400.31;5047269;28;19925;-56
2022/09/20 12:26:43;;;;;;;;;;;;;;;16.26;65.28;102401.31;5048888;28;20003;-56
2022/09/20 12:29:24;;;;;;;;;;;;;;;16.30;64.57;102399.97;5052792;28;20007;-55
2022/09/20 12:31:53;;;;;;;;;;;;;;;16.32;64.66;102392.56;5042811;28;20380;-56
2022/09/20 12:34:18;;;;;;;;;;;;;;;16.37;63.94;102387.53;5046840;28;20380;-55
2022/09/20 12:37:03;;;;;;;;;;;;;;;16.47;63.87;102389.19;5046010;28;19920;-56
2022/09/20 12:39:29;;;;;;;;;;;;;;;16.49;62.78;102390.72;5040410;28;19924;-55
2022/09/20 12:41:54;;;;;;;;;;;;;;;16.48;62.70;102383.69;5049904;28;19913;-54
2022/09/20 12:44:22;;;;;;;;;;;;;;;16.43;61.35;102380.66;5048085;28;20563;-56
2022/09/20 12:47:07;;;;;;;;;;;;;;;16.48;60.98;102388.16;5049959;28;19967;-56
2022/09/20 12:55:10;;;;;;;;;;;;;;;16.66;60.82;102375.41;5048329;28;20360;-55
2022/09/20 12:57:36;;;;;;;;;;;;;;;16.75;61.29;102379.75;5046522;28;20407;-56
2022/09/20 13:00:04;;;;;;;;;;;;;;;16.76;60.52;102372.53;5047327;28;19917;-55
2022/09/20 13:02:48;;;;;;;;;;;;;;;16.74;60.33;102378.06;5046967;28;20145;-55
2022/09/20 13:05:32;;;;;;;;;;;;;;;16.74;60.30;102378.06;5045279;28;19913;-56
2022/09/20 13:08:01;;;;;;;;;;;;;;;16.77;59.09;102367.00;5043116;28;20422;-56
2022/09/20 13:10:29;;;;;;;;;;;;;;;16.88;59.96;102374.66;5046434;28;19928;-56
2022/09/20 13:12:58;;;;;;;;;;;;;;;17.02;60.18;102365.03;5049959;28;19913;-57
2022/09/20 13:15:23;;;;;;;;;;;;;;;17.16;59.08;102372.34;5038931;28;19966;-56
2022/09/20 13:17:50;;;;;;;;;;;;;;;17.29;59.42;102369.06;5053793;28;19924;-55
2022/09/20 13:20:28;;;;;;;;;;;;;;;17.50;59.54;102373.81;5049113;28;19994;-56